Time,TemperatureF,DewpointF,PressureIn,WindDirection,WindDirectionDegrees,WindSpeedMPH,WindSpeedGustMPH,Humidity,HourlyPrecipIn,Conditions,Clouds,dailyrainin,SoftwareType,DateUTC
2013-10-14 00:04:00,59.0,56.7,30.14,NE,45,0.0,-999.0,92,-99.99,,,0.00,Acu-Link.com,2013-10-14 04:04:00,
2013-10-14 00:20:00,58.5,56.5,30.15,ESE,112,0.0,-999.0,93,-99.99,,,0.00,Acu-Link.com,2013-10-14 04:20:00,
2013-10-14 00:35:00,58.3,56.6,30.14,ESE,112,2.7,-999.0,94,-99.99,,,0.00,Acu-Link.com,2013-10-14 04:35:00,
2013-10-14 00:50:00,57.9,56.5,30.14,ESE,112,2.7,-999.0,95,-99.99,,,0.00,Acu-Link.com,2013-10-14 04:50:00,
2013-10-14 01:05:00,57.6,56.2,30.14,East,90,1.7,-999.0,95,-99.99,,,0.00,Acu-Link.com,2013-10-14 05:05:00,
2013-10-14 01:22:00,57.6,56.2,30.14,ESE,112,0.0,-999.0,95,-99.99,,,0.00,Acu-Link.com,2013-10-14 05:22:00,
2013-10-14 01:37:00,57.6,56.5,30.14,West,270,2.2,-999.0,96,-99.99,,,0.00,Acu-Link.com,2013-10-14 05:37:00,
2013-10-14 01:52:00,57.6,56.5,30.15,WSW,247,1.7,-999.0,96,-99.99,,,0.00,Acu-Link.com,2013-10-14 05:52:00,
2013-10-14 02:07:00,57.6,56.5,30.14,West,270,0.0,-999.0,96,-99.99,,,0.00,Acu-Link.com,2013-10-14 06:07:00,
2013-10-14 02:22:00,57.6,56.5,30.14,West,270,0.0,-999.0,96,-99.99,,,0.00,Acu-Link.com,2013-10-14 06:22:00,
2013-10-14 02:38:00,57.7,56.6,30.15,WNW,292,0.0,-999.0,96,-99.99,,,0.00,Acu-Link.com,2013-10-14 06:38:00,
2013-10-14 02:53:00,57.9,56.5,30.14,SW,225,0.0,-999.0,95,-99.99,,,0.00,Acu-Link.com,2013-10-14 06:53:00,
2013-10-14 03:10:00,57.9,56.5,30.15,West,270,0.0,-999.0,95,-99.99,,,0.00,Acu-Link.com,2013-10-14 07:10:00,
2013-10-14 03:25:00,57.9,56.5,30.15,West,270,0.0,-999.0,95,-99.99,,,0.00,Acu-Link.com,2013-10-14 07:25:00,
2013-10-14 03:42:00,58.1,56.7,30.15,WSW,247,0.0,-999.0,95,-99.99,,,0.00,Acu-Link.com,2013-10-14 07:42:00,
2013-10-14 03:57:00,57.9,56.5,30.14,West,270,1.1,-999.0,95,-99.99,,,0.00,Acu-Link.com,2013-10-14 07:57:00,
2013-10-14 04:12:00,58.1,56.7,30.14,ESE,112,0.0,-999.0,95,-99.99,,,0.00,Acu-Link.com,2013-10-14 08:12:00,
2013-10-14 04:27:00,58.1,56.7,30.14,NNE,22,0.0,-999.0,95,-99.99,,,0.00,Acu-Link.com,2013-10-14 08:27:00,
2013-10-14 04:43:00,58.3,56.9,30.15,West,270,0.0,-999.0,95,-99.99,,,0.00,Acu-Link.com,2013-10-14 08:43:00,
2013-10-14 05:00:00,58.3,56.9,30.14,West,270,0.0,-999.0,95,-99.99,,,0.00,Acu-Link.com,2013-10-14 09:00:00,
2013-10-14 05:15:00,57.9,56.8,30.14,West,270,0.0,-999.0,96,-99.99,,,0.00,Acu-Link.com,2013-10-14 09:15:00,
2013-10-14 05:30:00,57.9,56.8,30.14,ESE,112,0.0,-999.0,96,-99.99,,,0.00,Acu-Link.com,2013-10-14 09:30:00,
2013-10-14 05:45:00,57.0,56.2,30.15,West,270,2.2,-999.0,97,-99.99,,,0.00,Acu-Link.com,2013-10-14 09:45:00,
2013-10-14 06:01:00,57.4,56.6,30.14,West,270,0.0,-999.0,97,-99.99,,,0.00,Acu-Link.com,2013-10-14 10:01:00,
2013-10-14 06:16:00,57.4,56.6,30.15,ENE,67,0.0,-999.0,97,-99.99,,,0.00,Acu-Link.com,2013-10-14 10:16:00,
2013-10-14 06:31:00,57.9,57.1,30.15,NNW,337,0.0,-999.0,97,-99.99,,,0.00,Acu-Link.com,2013-10-14 10:31:00,
2013-10-14 06:46:00,57.9,56.8,30.15,NE,45,0.0,-999.0,96,-99.99,,,0.00,Acu-Link.com,2013-10-14 10:46:00,
2013-10-14 07:01:00,57.9,56.8,30.16,East,90,0.0,-999.0,96,-99.99,,,0.00,Acu-Link.com,2013-10-14 11:01:00,
2013-10-14 07:16:00,57.9,56.8,30.15,East,90,0.0,-999.0,96,-99.99,,,0.00,Acu-Link.com,2013-10-14 11:16:00,
2013-10-14 07:31:00,57.9,56.8,30.15,East,90,0.0,-999.0,96,-99.99,,,0.00,Acu-Link.com,2013-10-14 11:31:00,
2013-10-14 07:47:00,57.7,56.6,30.15,ENE,67,0.0,-999.0,96,-99.99,,,0.00,Acu-Link.com,2013-10-14 11:47:00,
2013-10-14 08:02:00,57.7,56.6,30.16,West,270,0.0,-999.0,96,-99.99,,,0.00,Acu-Link.com,2013-10-14 12:02:00,
2013-10-14 08:17:00,58.1,57.3,30.16,ESE,112,2.2,-999.0,97,-99.99,,,0.00,Acu-Link.com,2013-10-14 12:17:00,
2013-10-14 08:33:00,58.6,57.2,30.17,East,90,2.2,-999.0,95,-99.99,,,0.00,Acu-Link.com,2013-10-14 12:33:00,
2013-10-14 08:48:00,59.9,57.6,30.18,South,180,0.0,-999.0,92,-99.99,,,0.00,Acu-Link.com,2013-10-14 12:48:00,
2013-10-14 09:03:00,61.3,58.0,30.18,SE,135,2.7,-999.0,89,-99.99,,,0.00,Acu-Link.com,2013-10-14 13:03:00,
2013-10-14 09:18:00,62.1,58.5,30.18,West,270,0.0,-999.0,88,-99.99,,,0.00,Acu-Link.com,2013-10-14 13:18:00,
2013-10-14 09:34:00,62.6,57.7,30.18,West,270,1.7,-999.0,84,-99.99,,,0.00,Acu-Link.com,2013-10-14 13:34:00,
2013-10-14 09:49:00,62.2,58.0,30.19,West,270,2.7,-999.0,86,-99.99,,,0.00,Acu-Link.com,2013-10-14 13:49:00,
2013-10-14 10:19:00,61.7,58.7,30.19,WSW,247,3.2,-999.0,90,-99.99,,,0.00,Acu-Link.com,2013-10-14 14:19:00,
2013-10-14 10:34:00,61.5,58.2,30.18,NNE,22,1.7,-999.0,89,-99.99,,,0.00,Acu-Link.com,2013-10-14 14:34:00,
2013-10-14 10:49:00,63.0,58.7,30.19,West,270,2.7,-999.0,86,-99.99,,,0.00,Acu-Link.com,2013-10-14 14:49:00,
2013-10-14 11:05:00,62.6,58.7,30.19,WNW,292,2.2,-999.0,87,-99.99,,,0.00,Acu-Link.com,2013-10-14 15:05:00,
2013-10-14 11:20:00,62.6,58.3,30.18,SSW,202,4.2,-999.0,86,-99.99,,,0.00,Acu-Link.com,2013-10-14 15:20:00,
2013-10-14 11:35:00,62.6,58.0,30.18,South,180,2.7,-999.0,85,-99.99,,,0.00,Acu-Link.com,2013-10-14 15:35:00,
2013-10-14 11:50:00,63.3,58.7,30.18,NW,315,3.7,-999.0,85,-99.99,,,0.00,Acu-Link.com,2013-10-14 15:50:00,
2013-10-14 12:05:00,63.1,59.5,30.18,WNW,292,4.2,-999.0,88,-99.99,,,0.00,Acu-Link.com,2013-10-14 16:05:00,
2013-10-14 12:20:00,62.6,59.3,30.18,West,270,2.7,-999.0,89,-99.99,,,0.00,Acu-Link.com,2013-10-14 16:20:00,
2013-10-14 12:36:00,62.2,58.9,30.18,WNW,292,2.2,-999.0,89,-99.99,,,0.00,Acu-Link.com,2013-10-14 16:36:00,
2013-10-14 12:51:00,62.6,59.3,30.17,East,90,2.7,-999.0,89,-99.99,,,0.00,Acu-Link.com,2013-10-14 16:51:00,
2013-10-14 13:06:00,63.0,59.7,30.17,West,270,3.2,-999.0,89,-99.99,,,0.00,Acu-Link.com,2013-10-14 17:06:00,
2013-10-14 13:22:00,63.5,59.9,30.16,ESE,112,2.2,-999.0,88,-99.99,,,0.00,Acu-Link.com,2013-10-14 17:22:00,
2013-10-14 13:37:00,63.7,59.4,30.15,NE,45,2.7,-999.0,86,-99.99,,,0.00,Acu-Link.com,2013-10-14 17:37:00,
2013-10-14 13:52:00,65.1,60.1,30.14,NNW,337,7.8,-999.0,84,-99.99,,,0.00,Acu-Link.com,2013-10-14 17:52:00,
2013-10-14 14:07:00,65.5,60.2,30.14,ESE,112,3.7,-999.0,83,-99.99,,,0.00,Acu-Link.com,2013-10-14 18:07:00,
2013-10-14 14:23:00,64.2,59.6,30.13,SSW,202,0.0,-999.0,85,-99.99,,,0.00,Acu-Link.com,2013-10-14 18:23:00,
2013-10-14 14:38:00,64.2,59.6,30.13,East,90,2.2,-999.0,85,-99.99,,,0.00,Acu-Link.com,2013-10-14 18:38:00,
2013-10-14 14:53:00,64.6,59.7,30.13,ESE,112,2.2,-999.0,84,-99.99,,,0.00,Acu-Link.com,2013-10-14 18:53:00,
2013-10-14 15:08:00,63.9,59.3,30.13,NW,315,3.2,-999.0,85,-99.99,,,0.00,Acu-Link.com,2013-10-14 19:08:00,
2013-10-14 15:23:00,63.9,59.6,30.13,WNW,292,4.7,-999.0,86,-99.99,,,0.00,Acu-Link.com,2013-10-14 19:23:00,
2013-10-14 15:39:00,63.0,59.4,30.13,North,0,2.7,-999.0,88,-99.99,,,0.00,Acu-Link.com,2013-10-14 19:39:00,
2013-10-14 15:54:00,62.8,59.5,30.13,West,270,3.7,-999.0,89,-99.99,,,0.00,Acu-Link.com,2013-10-14 19:54:00,
2013-10-14 16:09:00,61.9,59.2,30.12,WNW,292,3.2,-999.0,91,-99.99,,,0.00,Acu-Link.com,2013-10-14 20:09:00,
2013-10-14 16:24:00,61.9,59.2,30.12,West,270,3.7,-999.0,91,-99.99,,,0.00,Acu-Link.com,2013-10-14 20:24:00,
2013-10-14 16:40:00,62.1,59.4,30.13,NE,45,2.7,-999.0,91,-99.99,,,0.00,Acu-Link.com,2013-10-14 20:40:00,
2013-10-14 16:55:00,61.9,59.2,30.13,NE,45,4.7,-999.0,91,-99.99,,,0.00,Acu-Link.com,2013-10-14 20:55:00,
2013-10-14 17:10:00,61.5,58.8,30.12,NNE,22,4.7,-999.0,91,-99.99,,,0.00,Acu-Link.com,2013-10-14 21:10:00,
2013-10-14 17:25:00,61.7,59.0,30.12,NE,45,4.7,-999.0,91,-99.99,,,0.00,Acu-Link.com,2013-10-14 21:25:00,
2013-10-14 17:40:00,61.3,59.0,30.12,ENE,67,2.2,-999.0,92,-99.99,,,0.00,Acu-Link.com,2013-10-14 21:40:00,
2013-10-14 17:56:00,61.0,59.0,30.13,NE,45,5.3,-999.0,93,-99.99,,,0.00,Acu-Link.com,2013-10-14 21:56:00,
2013-10-14 18:11:00,61.0,59.0,30.13,East,90,4.2,-999.0,93,-99.99,,,0.00,Acu-Link.com,2013-10-14 22:11:00,
2013-10-14 18:26:00,60.8,59.1,30.12,ENE,67,2.7,-999.0,94,-99.99,,,0.00,Acu-Link.com,2013-10-14 22:26:00,
2013-10-14 18:41:00,60.6,58.9,30.13,North,0,3.2,-999.0,94,-99.99,,,0.00,Acu-Link.com,2013-10-14 22:41:00,
2013-10-14 18:56:00,60.4,58.7,30.13,WSW,247,5.8,-999.0,94,-99.99,,,0.00,Acu-Link.com,2013-10-14 22:56:00,
2013-10-14 19:12:00,60.4,59.0,30.13,NE,45,3.2,-999.0,95,-99.99,,,0.00,Acu-Link.com,2013-10-14 23:12:00,
2013-10-14 19:27:00,60.3,58.9,30.13,NE,45,2.2,-999.0,95,-99.99,,,0.00,Acu-Link.com,2013-10-14 23:27:00,
2013-10-14 19:42:00,60.1,58.7,30.13,WNW,292,3.2,-999.0,95,-99.99,,,0.00,Acu-Link.com,2013-10-14 23:42:00,
2013-10-14 19:58:00,60.1,58.7,30.13,NNE,22,3.2,-999.0,95,-99.99,,,0.00,Acu-Link.com,2013-10-14 23:58:00,
2013-10-14 20:13:00,60.1,59.0,30.13,WNW,292,3.7,-999.0,96,-99.99,,,0.00,Acu-Link.com,2013-10-15 00:13:00,
2013-10-14 20:28:00,59.9,58.8,30.13,West,270,3.7,-999.0,96,-99.99,,,0.00,Acu-Link.com,2013-10-15 00:28:00,
2013-10-14 20:44:00,59.9,58.8,30.13,WNW,292,3.7,-999.0,96,-99.99,,,0.00,Acu-Link.com,2013-10-15 00:44:00,
2013-10-14 20:59:00,59.5,58.6,30.13,NE,45,2.7,-999.0,97,-99.99,,,0.00,Acu-Link.com,2013-10-15 00:59:00,
2013-10-14 21:14:00,59.4,58.5,30.13,NNE,22,2.7,-999.0,97,-99.99,,,0.00,Acu-Link.com,2013-10-15 01:14:00,
2013-10-14 21:29:00,59.4,58.5,30.13,NE,45,3.2,-999.0,97,-99.99,,,0.00,Acu-Link.com,2013-10-15 01:29:00,
2013-10-14 21:44:00,59.2,58.3,30.13,NNE,22,3.7,-999.0,97,-99.99,,,0.00,Acu-Link.com,2013-10-15 01:44:00,
2013-10-14 21:59:00,59.2,58.3,30.13,NNE,22,4.2,-999.0,97,-99.99,,,0.00,Acu-Link.com,2013-10-15 01:59:00,
2013-10-14 22:15:00,59.2,58.3,30.13,NNE,22,3.2,-999.0,97,-99.99,,,0.00,Acu-Link.com,2013-10-15 02:15:00,
2013-10-14 22:30:00,59.2,58.6,30.13,East,90,2.7,-999.0,98,-99.99,,,0.00,Acu-Link.com,2013-10-15 02:30:00,
2013-10-14 22:45:00,58.8,58.2,30.13,NNE,22,2.2,-999.0,98,-99.99,,,0.00,Acu-Link.com,2013-10-15 02:45:00,
2013-10-14 23:00:00,58.6,58.0,30.13,ESE,112,2.7,-999.0,98,-99.99,,,0.00,Acu-Link.com,2013-10-15 03:00:00,
2013-10-14 23:15:00,58.6,58.3,30.12,ENE,67,2.7,-999.0,99,-99.99,,,0.00,Acu-Link.com,2013-10-15 03:15:00,
2013-10-14 23:31:00,58.6,58.3,30.13,ENE,67,1.7,-999.0,99,-99.99,,,0.00,Acu-Link.com,2013-10-15 03:31:00,
2013-10-14 23:46:00,58.6,58.3,30.12,ENE,67,3.2,-999.0,99,-99.99,,,0.00,Acu-Link.com,2013-10-15 03:46:00,